Time;durP1;ratioP1;P1;durP2;ratioP2;P2;SDS_P1;SDS_P2;PMS_P1;PMS_P2;Temp;Humidity;BMP_temperature;BMP_pressure;BME280_temperature;BME280_humidity;BME280_pressure;Samples;Min_cycle;Max_cycle;Signal;HPM_P1;HPM_P2
2021/12/18 00:02:19;;;;;;;44.20;26.38;;;;;;;18.54;50.59;104213.66;5011829;28;20054;-58
2021/12/18 00:04:46;;;;;;;44.20;26.10;;;;;;;18.53;50.37;104207.38;5010520;28;20107;-58
2021/12/18 00:07:12;;;;;;;46.20;26.80;;;;;;;18.52;50.88;104207.47;5010332;28;20058;-58
2021/12/18 00:09:40;;;;;;;43.20;25.65;;;;;;;18.51;49.95;104211.97;5005578;28;20333;-58
2021/12/18 00:12:09;;;;;;;42.00;24.50;;;;;;;18.50;50.76;104202.19;5009718;28;20132;-58
2021/12/18 00:14:36;;;;;;;39.67;24.45;;;;;;;18.49;50.67;104205.78;5010656;28;20049;-57
2021/12/18 00:17:03;;;;;;;41.00;25.98;;;;;;;18.49;50.75;104203.09;5009086;28;20104;-57
2021/12/18 00:19:30;;;;;;;40.17;24.38;;;;;;;18.48;50.65;104206.75;5009610;28;20057;-58
2021/12/18 00:21:56;;;;;;;42.53;25.95;;;;;;;18.47;50.39;104202.31;5010259;28;20053;-58
2021/12/18 00:24:28;;;;;;;41.83;23.92;;;;;;;18.47;50.57;104191.56;5009222;28;20487;-58
2021/12/18 00:26:55;;;;;;;40.75;23.65;;;;;;;18.46;50.67;104189.84;5005882;28;20054;-57
2021/12/18 00:29:21;;;;;;;38.97;23.02;;;;;;;18.45;50.70;104183.59;5009402;28;20108;-58
2021/12/18 00:31:48;;;;;;;38.45;23.00;;;;;;;18.45;50.49;104183.59;5009508;28;20044;-58
2021/12/18 00:34:14;;;;;;;39.45;24.35;;;;;;;18.44;50.81;104186.34;5009483;28;20316;-58
2021/12/18 00:36:41;;;;;;;36.63;22.23;;;;;;;18.44;50.43;104186.34;5011194;28;20401;-58
2021/12/18 00:39:07;;;;;;;37.10;22.60;;;;;;;18.42;50.79;104183.75;5009068;28;20100;-58
2021/12/18 00:44:03;;;;;;;37.75;22.52;;;;;;;18.41;50.51;104183.81;5009136;28;20876;-57
2021/12/18 00:46:37;;;;;;;39.80;23.60;;;;;;;18.40;50.42;104182.06;5009030;28;20045;-57
2021/12/18 00:49:06;;;;;;;35.00;22.35;;;;;;;18.39;50.56;104173.16;5007860;28;20058;-57
2021/12/18 00:51:34;;;;;;;35.58;21.98;;;;;;;18.38;50.55;104184.84;5005752;28;20497;-57
2021/12/18 00:54:01;;;;;;;36.65;22.63;;;;;;;18.38;50.49;104183.97;5012027;28;20322;-57
2021/12/18 00:56:28;;;;;;;35.95;22.77;;;;;;;18.38;50.57;104187.53;5006966;28;20041;-57
2021/12/18 00:58:54;;;;;;;37.10;22.30;;;;;;;18.38;50.50;104181.28;5010288;28;20073;-57
2021/12/18 01:01:23;;;;;;;36.95;22.70;;;;;;;18.37;50.71;104184.91;5007495;28;20072;-57
2021/12/18 01:03:51;;;;;;;35.90;21.70;;;;;;;18.37;50.83;104179.53;5008796;28;20128;-57
2021/12/18 01:06:20;;;;;;;34.42;20.48;;;;;;;18.34;50.53;104182.38;5007516;28;20058;-58
2021/12/18 01:08:51;;;;;;;35.38;21.35;;;;;;;18.34;50.74;104185.06;5007020;28;20049;-58
2021/12/18 01:11:32;;;;;;;32.78;20.52;;;;;;;18.33;50.82;104186.00;5004739;28;20060;-58
2021/12/18 01:16:51;;;;;;;30.77;19.77;;;;;;;18.32;50.82;104181.56;5010591;28;20072;-57
2021/12/18 01:24:49;;;;;;;31.35;19.50;;;;;;;18.29;50.74;104197.81;5013672;28;20060;-57
2021/12/18 01:27:15;;;;;;;31.60;19.50;;;;;;;18.28;50.68;104196.09;5010026;28;20081;-58
2021/12/18 01:29:42;;;;;;;31.02;19.05;;;;;;;18.28;50.72;104204.16;5013811;28;20067;-58
2021/12/18 01:32:09;;;;;;;31.27;18.98;;;;;;;18.25;51.05;104191.72;5012526;28;20042;-58
2021/12/18 01:34:37;;;;;;;28.33;18.42;;;;;;;18.24;50.68;104196.22;5011354;28;20343;-58
2021/12/18 01:37:04;;;;;;;29.70;18.10;;;;;;;18.25;51.16;104191.72;5008604;28;20049;-58
2021/12/18 01:39:31;;;;;;;30.27;18.98;;;;;;;18.24;50.66;104193.53;5014869;28;20047;-58
2021/12/18 01:52:42;;;;;;;28.27;17.77;;;;;;;18.20;50.96;104191.09;5009811;28;20398;-57
2021/12/18 01:55:11;;;;;;;29.25;18.50;;;;;;;18.19;50.88;104182.16;5011874;28;20042;-57
2021/12/18 01:57:38;;;;;;;26.60;16.25;;;;;;;18.19;50.76;104192.91;5009578;28;20054;-56
2021/12/18 02:00:27;;;;;;;27.58;16.83;;;;;;;18.18;50.74;104184.94;5013042;28;20057;-56
2021/12/18 02:02:54;;;;;;;28.05;16.83;;;;;;;18.18;51.09;104193.84;5007213;28;22917;-56
2021/12/18 02:05:21;;;;;;;25.98;16.50;;;;;;;18.17;50.77;104188.53;5008748;28;20776;-57
2021/12/18 02:07:48;;;;;;;27.08;16.92;;;;;;;18.16;50.87;104178.75;5009873;28;20064;-57
2021/12/18 02:10:20;;;;;;;26.75;16.20;;;;;;;18.16;50.85;104178.75;5011100;28;20432;-57
2021/12/18 02:20:48;;;;;;;23.73;15.27;;;;;;;18.13;51.00;104169.03;5009397;28;20048;-57
2021/12/18 02:23:14;;;;;;;24.20;15.00;;;;;;;18.13;50.97;104173.53;5007145;28;20068;-58
2021/12/18 02:25:44;;;;;;;24.63;14.70;;;;;;;18.12;51.22;104169.09;5007851;28;20057;-58
2021/12/18 02:28:17;;;;;;;23.95;15.45;;;;;;;18.12;51.00;104169.09;5008364;28;20138;-58
2021/12/18 02:30:45;;;;;;;23.33;14.10;;;;;;;18.11;51.15;104162.88;5007944;28;20057;-58
2021/12/18 02:33:12;;;;;;;25.27;15.43;;;;;;;18.10;51.34;104171.88;5011027;28;20483;-59
2021/12/18 02:35:46;;;;;;;26.02;16.00;;;;;;;18.10;51.31;104168.31;5011604;28;20051;-59
2021/12/18 02:38:31;;;;;;;23.88;14.60;;;;;;;18.09;51.36;104174.59;5009471;28;20515;-59
2021/12/18 02:41:45;;;;;;;24.90;15.18;;;;;;;18.09;50.96;104171.91;5009002;28;20042;-59
2021/12/18 02:43:50;;;;;;;24.45;14.60;;;;;;;18.08;51.04;104173.75;5006025;28;20373;-58
2021/12/18 02:46:19;;;;;;;22.13;13.98;;;;;;;18.08;51.19;104175.56;5009629;28;20052;-58
2021/12/18 02:48:49;;;;;;;23.50;14.73;;;;;;;18.06;51.23;104167.59;5008503;28;20060;-58
2021/12/18 02:51:17;;;;;;;24.35;14.85;;;;;;;18.06;51.03;104164.91;5010098;28;20067;-59
2021/12/18 02:53:47;;;;;;;23.48;14.15;;;;;;;18.06;51.10;104170.28;5008291;28;20046;-58
2021/12/18 02:56:15;;;;;;;22.80;13.15;;;;;;;18.05;50.60;104173.91;5007565;28;20099;-57
2021/12/18 02:58:46;;;;;;;20.88;12.85;;;;;;;18.05;51.29;104164.97;5006934;28;20050;-57
2021/12/18 03:01:19;;;;;;;22.30;13.90;;;;;;;18.04;51.40;104160.53;5004377;28;20066;-58
2021/12/18 03:03:47;;;;;;;21.33;13.00;;;;;;;18.03;50.94;104159.69;5012631;28;20142;-57
2021/12/18 03:06:38;;;;;;;20.63;12.45;;;;;;;18.03;51.01;104161.50;5010083;28;20361;-58
2021/12/18 03:27:25;;;;;;;20.80;13.40;;;;;;;17.96;51.10;104156.41;5006596;28;20054;-58
2021/12/18 03:29:52;;;;;;;18.95;11.50;;;;;;;17.97;51.14;104146.56;5010408;28;20128;-58
2021/12/18 03:32:19;;;;;;;20.00;11.63;;;;;;;17.96;50.99;104152.84;5010935;28;20054;-58
2021/12/18 03:34:45;;;;;;;18.30;11.93;;;;;;;17.96;51.24;104160.91;5007930;28;20346;-58
2021/12/18 03:37:13;;;;;;;17.88;11.10;;;;;;;17.95;51.12;104162.72;5010354;28;20046;-58
2021/12/18 03:39:40;;;;;;;17.77;11.30;;;;;;;17.94;51.08;104152.94;5010132;28;20049;-58
2021/12/18 03:42:06;;;;;;;16.52;11.23;;;;;;;17.93;51.14;104155.66;5010973;28;20042;-57
2021/12/18 03:44:34;;;;;;;18.52;12.00;;;;;;;17.92;51.54;104152.13;5007155;28;20050;-58
2021/12/18 03:47:01;;;;;;;17.95;11.35;;;;;;;17.92;51.07;104156.63;5011357;28;20050;-58
2021/12/18 03:49:28;;;;;;;15.95;10.38;;;;;;;17.92;51.23;104162.00;5011231;28;20341;-58
2021/12/18 03:51:55;;;;;;;17.38;11.02;;;;;;;17.91;51.46;104158.44;5009114;28;20068;-58
2021/12/18 03:54:22;;;;;;;16.67;10.75;;;;;;;17.90;51.44;104156.69;5008896;28;20057;-58
2021/12/18 03:56:48;;;;;;;16.15;10.32;;;;;;;17.90;51.14;104156.69;5004908;28;20050;-58
2021/12/18 03:59:16;;;;;;;18.38;11.30;;;;;;;17.89;51.05;104156.75;5008502;28;20060;-58
2021/12/18 04:01:42;;;;;;;16.20;10.18;;;;;;;17.90;51.17;104161.22;5008430;28;20430;-58
2021/12/18 04:04:09;;;;;;;15.23;9.95;;;;;;;17.88;51.33;104165.75;5006414;28;20053;-58
2021/12/18 04:06:38;;;;;;;16.25;10.50;;;;;;;17.88;51.21;104152.34;5012229;28;20384;-58
2021/12/18 04:09:06;;;;;;;14.23;9.52;;;;;;;17.87;51.32;104158.66;5007267;28;20357;-57
2021/12/18 04:11:33;;;;;;;14.48;9.15;;;;;;;17.86;51.35;104151.56;5008048;28;20049;-58
2021/12/18 04:14:01;;;;;;;14.75;9.52;;;;;;;17.86;51.35;104156.94;5007531;28;20056;-58
2021/12/18 04:16:28;;;;;;;14.95;9.73;;;;;;;17.86;51.01;104156.94;5006555;28;20168;-58
2021/12/18 04:18:54;;;;;;;14.68;9.27;;;;;;;17.84;51.50;104151.59;5006192;28;20060;-59
2021/12/18 04:21:21;;;;;;;15.50;9.77;;;;;;;17.82;51.45;104153.50;5006354;28;20126;-58
2021/12/18 04:23:47;;;;;;;17.65;9.75;;;;;;;17.83;51.52;104159.75;5009342;28;20458;-59
2021/12/18 04:26:14;;;;;;;13.98;9.23;;;;;;;17.82;51.37;104155.31;5006100;28;20060;-58
2021/12/18 04:28:40;;;;;;;13.95;8.63;;;;;;;17.81;51.32;104162.50;5010133;28;20060;-58
2021/12/18 04:31:07;;;;;;;14.48;9.05;;;;;;;17.81;51.60;104148.19;5014611;28;20056;-59
2021/12/18 04:33:33;;;;;;;12.32;8.88;;;;;;;17.81;51.46;104164.28;5009498;28;20065;-58
2021/12/18 04:36:00;;;;;;;13.90;8.60;;;;;;;17.79;51.58;104167.06;5005004;28;20056;-59
2021/12/18 04:38:26;;;;;;;14.10;9.23;;;;;;;17.79;51.60;104155.47;5008952;28;20053;-59
2021/12/18 04:40:53;;;;;;;14.13;8.77;;;;;;;17.78;51.71;104165.31;5007849;28;20048;-58
2021/12/18 04:43:19;;;;;;;13.00;8.35;;;;;;;17.78;51.50;104167.16;5006566;28;20058;-59
2021/12/18 04:45:46;;;;;;;14.52;8.50;;;;;;;17.78;51.44;104167.16;5007962;28;20046;-59
2021/12/18 04:48:13;;;;;;;11.73;7.68;;;;;;;17.76;51.74;104168.06;5008209;28;20141;-59
2021/12/18 04:50:39;;;;;;;13.02;8.18;;;;;;;17.76;51.46;104173.44;5003632;28;20452;-59
2021/12/18 04:53:06;;;;;;;13.00;8.50;;;;;;;17.77;51.66;104177.00;5009846;28;20649;-59
2021/12/18 04:55:32;;;;;;;12.93;8.13;;;;;;;17.75;51.33;104169.00;5005672;28;20360;-57
2021/12/18 04:57:59;;;;;;;12.55;8.43;;;;;;;17.74;51.36;104167.28;5003328;28;20092;-58
2021/12/18 05:00:35;;;;;;;12.65;7.60;;;;;;;17.75;51.68;104177.06;5006498;28;20060;-58
2021/12/18 05:03:05;;;;;;;12.27;7.78;;;;;;;17.73;51.54;104168.19;5004854;28;20050;-58
2021/12/18 05:05:33;;;;;;;13.00;8.05;;;;;;;17.73;51.78;104172.69;5008182;28;20053;-58
2021/12/18 05:08:01;;;;;;;11.10;7.40;;;;;;;17.72;51.59;104182.53;5006172;28;20054;-58
2021/12/18 05:10:27;;;;;;;11.68;7.13;;;;;;;17.71;51.61;104178.09;5006607;28;20050;-58
2021/12/18 05:12:54;;;;;;;13.30;7.78;;;;;;;17.72;51.68;104176.28;5006105;28;20046;-58
2021/12/18 05:15:21;;;;;;;10.73;7.13;;;;;;;17.70;51.32;104179.06;5005525;28;20052;-58
2021/12/18 05:17:47;;;;;;;12.30;7.45;;;;;;;17.71;51.20;104182.59;5005976;28;20476;-58
2021/12/18 05:20:14;;;;;;;10.35;6.70;;;;;;;17.70;51.44;104180.88;5007206;28;20486;-58
2021/12/18 05:22:41;;;;;;;11.68;7.18;;;;;;;17.68;51.42;104169.31;5006695;28;20052;-58
2021/12/18 05:25:08;;;;;;;11.98;7.30;;;;;;;17.68;51.61;104175.56;5003750;28;20349;-58
2021/12/18 05:27:36;;;;;;;10.07;6.75;;;;;;;17.68;51.82;104190.78;5006374;28;20046;-58
2021/12/18 05:30:10;;;;;;;11.88;7.18;;;;;;;17.66;51.59;104188.19;5007094;28;20046;-58
2021/12/18 05:32:38;;;;;;;10.02;6.57;;;;;;;17.67;51.65;104187.25;5006920;28;20046;-58
2021/12/18 05:35:05;;;;;;;10.80;7.03;;;;;;;17.68;51.34;104190.78;5008591;28;20398;-58
2021/12/18 05:37:45;;;;;;;9.70;6.45;;;;;;;17.66;51.32;104181.97;5009241;28;20513;-58
2021/12/18 05:40:14;;;;;;;12.25;6.80;;;;;;;17.66;51.40;104180.13;5004503;28;20357;-58
2021/12/18 05:42:46;;;;;;;11.07;6.70;;;;;;;17.65;51.62;104172.16;5006349;28;20407;-58
2021/12/18 05:45:14;;;;;;;10.63;6.47;;;;;;;17.65;51.63;104166.81;5005527;28;20058;-58
2021/12/18 05:47:40;;;;;;;10.88;6.40;;;;;;;17.64;51.37;104171.28;5006018;28;20141;-57
2021/12/18 05:50:08;;;;;;;9.65;6.40;;;;;;;17.63;51.02;104164.19;5006413;28;20042;-58
2021/12/18 05:52:34;;;;;;;10.52;6.55;;;;;;;17.64;51.62;104170.41;5006495;28;20050;-58
2021/12/18 05:55:01;;;;;;;8.93;5.93;;;;;;;17.64;51.43;104163.22;5007747;28;20052;-59
2021/12/18 05:57:28;;;;;;;8.95;6.10;;;;;;;17.63;51.60;104163.31;5008351;28;20549;-59
2021/12/18 05:59:54;;;;;;;9.32;6.20;;;;;;;17.63;51.08;104168.66;5006730;28;20157;-59
2021/12/18 06:02:21;;;;;;;7.93;5.22;;;;;;;17.60;51.34;104161.63;5011451;28;20050;-59
2021/12/18 06:04:47;;;;;;;7.90;5.47;;;;;;;17.61;51.86;104170.53;5009410;28;20055;-59
2021/12/18 06:07:28;;;;;;;7.88;5.43;;;;;;;17.60;51.60;104166.13;5010434;28;20348;-59
2021/12/18 06:09:56;;;;;;;7.82;5.30;;;;;;;17.60;51.29;104164.31;5011694;28;20137;-58
2021/12/18 06:12:23;;;;;;;9.05;5.40;;;;;;;17.60;51.69;104172.34;5011257;28;20132;-59
2021/12/18 06:14:50;;;;;;;8.48;5.15;;;;;;;17.59;51.60;104169.75;5006181;28;20056;-58
2021/12/18 06:17:16;;;;;;;7.72;5.05;;;;;;;17.58;51.91;104166.22;5007921;28;20060;-58
2021/12/18 06:19:43;;;;;;;7.85;5.13;;;;;;;17.58;51.63;104170.69;5009701;28;20137;-59
2021/12/18 06:22:09;;;;;;;9.73;5.95;;;;;;;17.57;51.46;104161.78;5006771;28;20057;-58
2021/12/18 06:24:36;;;;;;;7.78;5.22;;;;;;;17.55;51.64;104171.69;5009162;28;20037;-58
2021/12/18 06:27:03;;;;;;;8.48;5.53;;;;;;;17.53;51.87;104168.22;5008014;28;20468;-58
2021/12/18 06:29:31;;;;;;;7.32;4.63;;;;;;;17.53;51.91;104173.59;5007934;28;20057;-58
2021/12/18 06:31:58;;;;;;;8.18;5.10;;;;;;;17.51;51.57;104173.66;5007101;28;20045;-58
2021/12/18 06:34:25;;;;;;;8.73;5.20;;;;;;;17.51;51.33;104175.47;5009518;28;20112;-59
2021/12/18 06:36:51;;;;;;;7.63;5.35;;;;;;;17.52;51.81;104171.84;5009026;28;20045;-58
2021/12/18 06:39:18;;;;;;;8.98;5.78;;;;;;;17.50;51.17;104171.91;5008284;28;20054;-58
2021/12/18 06:41:44;;;;;;;8.52;5.30;;;;;;;17.51;51.26;104175.47;5007916;28;20160;-58
2021/12/18 06:44:11;;;;;;;10.82;6.45;;;;;;;17.51;51.75;104179.00;5011107;28;20666;-57
2021/12/18 06:46:37;;;;;;;11.73;7.45;;;;;;;17.50;51.78;104179.97;5008944;28;20060;-56
2021/12/18 06:49:06;;;;;;;14.73;8.23;;;;;;;17.51;52.01;104173.66;5009053;28;20072;-56
2021/12/18 06:51:32;;;;;;;13.15;8.07;;;;;;;17.49;52.15;104180.03;5009970;28;20050;-56
2021/12/18 06:53:59;;;;;;;14.75;8.65;;;;;;;17.48;51.82;104179.13;5006691;28;20061;-57
2021/12/18 06:56:26;;;;;;;15.52;9.55;;;;;;;17.47;51.88;104177.41;5010056;28;20053;-57
2021/12/18 06:58:52;;;;;;;14.60;8.85;;;;;;;17.47;52.11;104176.53;5007050;28;20060;-57
2021/12/18 07:01:19;;;;;;;14.98;8.70;;;;;;;17.46;52.36;104181.03;5007859;28;20149;-57
2021/12/18 07:03:45;;;;;;;14.70;9.52;;;;;;;17.46;51.91;104180.16;5011382;28;20045;-57
2021/12/18 07:06:12;;;;;;;15.88;9.35;;;;;;;17.45;52.13;104184.66;5008745;28;20056;-57
2021/12/18 07:08:38;;;;;;;18.70;10.93;;;;;;;17.45;51.83;104184.66;5007176;28;20462;-57
2021/12/18 07:11:05;;;;;;;15.93;9.63;;;;;;;17.44;51.64;104185.56;5007559;28;20050;-57
2021/12/18 07:13:32;;;;;;;22.98;12.32;;;;;;;17.43;51.92;104185.66;5005954;28;20339;-57
2021/12/18 07:15:59;;;;;;;32.78;15.73;;;;;;;17.42;53.55;104187.47;5007850;28;20050;-56
2021/12/18 07:18:26;;;;;;;33.65;16.08;;;;;;;17.42;53.77;104187.47;5009163;28;20127;-56
2021/12/18 07:20:52;;;;;;;29.00;16.08;;;;;;;17.42;54.99;104186.59;5006573;28;20052;-55
2021/12/18 07:23:19;;;;;;;33.28;16.15;;;;;;;17.43;55.26;104185.66;5008477;28;20132;-57
2021/12/18 07:25:45;;;;;;;36.17;16.92;;;;;;;17.41;55.09;104185.75;5007994;28;20052;-56
2021/12/18 07:28:12;;;;;;;38.58;17.02;;;;;;;17.42;54.73;104183.94;5006581;28;20054;-57
2021/12/18 07:30:38;;;;;;;37.35;17.58;;;;;;;17.43;55.29;104183.84;5001165;28;20054;-56
2021/12/18 07:33:10;;;;;;;37.55;17.42;;;;;;;17.43;54.48;104182.97;5005440;28;20052;-57
2021/12/18 07:35:41;;;;;;;35.40;18.42;;;;;;;17.41;54.82;104183.06;5003533;28;20636;-55
2021/12/18 07:38:08;;;;;;;34.70;17.63;;;;;;;17.41;54.35;104184.88;5004067;28;20387;-57
2021/12/18 07:40:35;;;;;;;32.78;17.33;;;;;;;17.41;54.07;104187.56;5003806;28;20081;-57
2021/12/18 07:43:02;;;;;;;34.10;18.67;;;;;;;17.39;54.18;104184.91;5003863;28;20120;-56
2021/12/18 07:45:33;;;;;;;38.03;18.45;;;;;;;17.40;54.59;104185.78;5008732;28;20060;-57
2021/12/18 07:48:01;;;;;;;31.77;17.52;;;;;;;17.39;54.03;104184.06;5005660;28;20078;-56
2021/12/18 07:50:29;;;;;;;37.80;19.45;;;;;;;17.38;54.16;104187.69;5004103;28;20077;-56
2021/12/18 07:52:56;;;;;;;35.95;18.33;;;;;;;17.38;53.96;104188.53;5006683;28;20265;-56
2021/12/18 07:55:23;;;;;;;39.25;20.55;;;;;;;17.36;53.86;104184.19;5006454;28;20050;-56
2021/12/18 07:57:51;;;;;;;36.65;19.33;;;;;;;17.37;54.06;104180.59;4997762;28;20470;-56
2021/12/18 08:00:19;;;;;;;38.70;19.90;;;;;;;17.36;54.24;104182.38;5001738;28;20145;-56
2021/12/18 08:02:46;;;;;;;37.45;20.02;;;;;;;17.35;53.73;104185.13;5001658;28;20046;-57
2021/12/18 08:05:14;;;;;;;42.45;21.17;;;;;;;17.35;54.23;104187.81;5002692;28;20058;-57
2021/12/18 08:07:42;;;;;;;37.13;18.85;;;;;;;17.34;53.76;104189.63;5004355;28;20165;-57
2021/12/18 08:10:09;;;;;;;38.92;19.88;;;;;;;17.35;53.82;104187.81;5002842;28;20056;-57
2021/12/18 08:12:35;;;;;;;36.63;20.38;;;;;;;17.35;53.82;104190.50;5002869;28;20129;-57
2021/12/18 08:15:03;;;;;;;35.38;19.75;;;;;;;17.33;53.82;104185.22;5003180;28;20050;-56
2021/12/18 08:17:30;;;;;;;38.03;20.40;;;;;;;17.34;53.64;104192.31;5002193;28;20383;-57
2021/12/18 08:19:56;;;;;;;42.47;20.90;;;;;;;17.34;53.77;104188.75;5005556;28;20050;-56
2021/12/18 08:22:23;;;;;;;42.20;20.92;;;;;;;17.32;53.47;104193.28;5001359;28;20044;-55
2021/12/18 08:24:50;;;;;;;36.78;20.30;;;;;;;17.33;53.62;104187.03;5000170;28;20046;-57
2021/12/18 08:27:16;;;;;;;42.00;21.02;;;;;;;17.32;53.16;104190.63;5003922;28;20485;-56
2021/12/18 08:29:43;;;;;;;39.05;21.23;;;;;;;17.31;53.66;104196.94;5003833;28;20696;-56
2021/12/18 08:32:09;;;;;;;40.38;20.65;;;;;;;17.30;52.94;104196.06;5004683;28;20073;-57
2021/12/18 08:34:36;;;;;;;36.38;20.33;;;;;;;17.30;53.53;104187.16;5006668;28;20042;-57
2021/12/18 08:37:03;;;;;;;37.70;20.15;;;;;;;17.30;53.75;104182.66;5004748;28;20349;-57
2021/12/18 08:39:29;;;;;;;34.88;20.10;;;;;;;17.31;53.19;104186.19;5006166;28;20210;-56
2021/12/18 08:41:59;;;;;;;33.85;18.45;;;;;;;17.29;53.36;104183.59;5006938;28;20156;-58
2021/12/18 08:44:25;;;;;;;34.88;19.55;;;;;;;17.28;52.92;104185.38;5002721;28;20050;-57
2021/12/18 08:46:52;;;;;;;38.28;19.73;;;;;;;17.28;53.66;104182.69;5002727;28;20046;-57
2021/12/18 08:49:18;;;;;;;39.95;21.83;;;;;;;17.28;53.33;104181.84;5008017;28;20062;-57
2021/12/18 08:51:49;;;;;;;36.95;19.65;;;;;;;17.27;53.14;104186.31;5007418;28;20438;-57
2021/12/18 08:54:16;;;;;;;40.50;20.23;;;;;;;17.27;52.74;104180.97;5006265;28;20056;-57
2021/12/18 08:57:02;;;;;;;36.10;20.30;;;;;;;17.28;53.19;104188.06;5005648;28;20056;-57
2021/12/18 08:59:29;;;;;;;36.15;20.05;;;;;;;17.27;53.50;104198.88;5007905;28;20314;-56
2021/12/18 09:01:55;;;;;;;37.55;20.02;;;;;;;17.27;53.07;104190.81;5005897;28;20049;-57
2021/12/18 09:04:22;;;;;;;40.33;20.27;;;;;;;17.27;52.73;104188.13;5006200;28;20145;-57
2021/12/18 09:06:49;;;;;;;35.03;18.92;;;;;;;17.26;52.97;104189.97;5006324;28;20050;-57
2021/12/18 09:09:15;;;;;;;34.30;19.05;;;;;;;17.27;52.98;104198.88;5006012;28;20354;-57
2021/12/18 09:11:42;;;;;;;35.67;20.25;;;;;;;17.27;53.14;104193.50;5001022;28;20054;-55
2021/12/18 09:14:09;;;;;;;35.60;19.48;;;;;;;17.25;52.52;104190.03;5007056;28;20053;-57
2021/12/18 09:16:35;;;;;;;33.15;19.42;;;;;;;17.24;53.26;104186.47;5008624;28;20465;-57
2021/12/18 09:19:02;;;;;;;37.75;20.13;;;;;;;17.28;53.41;104185.38;5006750;28;20049;-57
2021/12/18 09:21:29;;;;;;;36.67;19.42;;;;;;;17.36;52.72;104189.53;5003453;28;20529;-57
2021/12/18 09:23:55;;;;;;;32.45;18.98;;;;;;;17.42;53.12;104189.28;5007457;28;20042;-57
2021/12/18 09:26:22;;;;;;;34.10;20.27;;;;;;;17.50;53.05;104192.50;5003129;28;20064;-57
2021/12/18 09:28:49;;;;;;;35.50;19.40;;;;;;;17.57;52.63;104191.28;5005885;28;20046;-57
2021/12/18 09:31:16;;;;;;;32.78;19.27;;;;;;;17.65;52.27;104193.63;5005088;28;20530;-57
2021/12/18 09:33:46;;;;;;;33.95;19.33;;;;;;;17.76;52.78;104189.53;5010664;28;20041;-56
2021/12/18 09:36:13;;;;;;;37.05;20.75;;;;;;;17.84;52.28;104191.00;5007425;28;20140;-57
2021/12/18 09:38:39;;;;;;;34.85;20.02;;;;;;;17.93;52.30;104186.09;5009350;28;20056;-57
2021/12/18 09:41:06;;;;;;;34.60;20.02;;;;;;;18.02;52.22;104183.91;5009775;28;20050;-57
2021/12/18 09:43:34;;;;;;;36.88;21.45;;;;;;;18.10;52.12;104193.34;5006876;28;20117;-57
2021/12/18 09:46:04;;;;;;;33.92;19.95;;;;;;;18.17;51.89;104184.06;5006933;28;20068;-56
2021/12/18 09:48:31;;;;;;;35.35;20.23;;;;;;;18.24;51.99;104188.16;5009277;28;20057;-57
2021/12/18 09:50:59;;;;;;;35.92;20.65;;;;;;;18.30;51.68;104188.84;5007297;28;20050;-57
2021/12/18 09:53:25;;;;;;;32.10;19.55;;;;;;;18.35;51.79;104186.81;5007626;28;20053;-57
2021/12/18 09:55:52;;;;;;;36.88;19.23;;;;;;;18.38;51.40;104186.66;5009076;28;20052;-55
2021/12/18 09:58:19;;;;;;;34.28;19.65;;;;;;;18.41;51.64;104178.44;5007415;28;20435;-57
2021/12/18 10:00:45;;;;;;;33.65;19.83;;;;;;;18.43;51.27;104184.63;5006566;28;20054;-57
2021/12/18 10:03:12;;;;;;;33.15;19.00;;;;;;;18.44;51.45;104186.34;5008086;28;20048;-57
2021/12/18 10:05:39;;;;;;;32.50;20.02;;;;;;;18.45;51.38;104182.72;5008777;28;20322;-55
2021/12/18 10:08:19;;;;;;;32.65;19.02;;;;;;;18.45;50.83;104174.66;5007474;28;20129;-57
2021/12/18 10:11:07;;;;;;;30.90;18.58;;;;;;;18.44;51.17;104180.97;5009406;28;20341;-56
2021/12/18 10:13:54;;;;;;;32.47;19.08;;;;;;;18.44;50.90;104176.47;5008638;28;20427;-57
2021/12/18 10:16:24;;;;;;;31.30;18.40;;;;;;;18.44;51.25;104180.97;5011306;28;20138;-57
2021/12/18 10:18:50;;;;;;;31.08;18.63;;;;;;;18.44;50.95;104175.59;5006277;28;20050;-57
2021/12/18 10:21:20;;;;;;;29.60;18.23;;;;;;;18.43;50.96;104173.88;5009110;28;20141;-56
2021/12/18 10:23:50;;;;;;;31.45;18.30;;;;;;;18.42;50.94;104167.63;5007945;28;20388;-57
2021/12/18 10:26:39;;;;;;;32.10;18.27;;;;;;;18.39;50.87;104165.09;5008283;28;20456;-56
2021/12/18 10:29:34;;;;;;;29.15;17.17;;;;;;;18.40;51.44;104165.97;5009750;28;20071;-57
2021/12/18 10:32:06;;;;;;;29.23;18.10;;;;;;;18.38;50.56;104162.50;5006378;28;20341;-57
2021/12/18 10:34:34;;;;;;;29.00;16.38;;;;;;;18.36;50.96;104159.84;5008209;28;20338;-56
2021/12/18 10:37:16;;;;;;;26.45;15.60;;;;;;;18.33;50.88;104162.72;5010592;28;20049;-56
2021/12/18 10:39:53;;;;;;;28.20;16.38;;;;;;;18.32;50.82;104157.41;5008925;28;20046;-56
2021/12/18 10:42:31;;;;;;;28.15;16.23;;;;;;;18.29;51.36;104161.13;5007879;28;20146;-56
2021/12/18 10:45:04;;;;;;;27.33;15.45;;;;;;;18.28;50.78;104170.09;5006850;28;20083;-57
2021/12/18 10:47:53;;;;;;;25.92;15.57;;;;;;;18.24;51.56;104161.31;5008245;28;20072;-56
2021/12/18 10:50:40;;;;;;;25.88;15.20;;;;;;;18.24;51.07;104158.63;5006198;28;20671;-58
2021/12/18 10:53:11;;;;;;;26.77;15.75;;;;;;;18.22;51.25;104157.00;5009211;28;20046;-57
2021/12/18 10:55:59;;;;;;;23.95;14.95;;;;;;;18.20;51.06;104164.22;5009944;28;20054;-57
2021/12/18 10:58:37;;;;;;;23.42;14.68;;;;;;;18.19;51.52;104166.06;5007773;28;20060;-57
2021/12/18 11:01:16;;;;;;;22.65;14.45;;;;;;;18.17;50.89;104162.59;5007984;28;20061;-55
2021/12/18 11:03:47;;;;;;;22.30;13.38;;;;;;;18.15;51.01;104167.16;5009228;28;20072;-57
2021/12/18 11:06:21;;;;;;;22.83;13.63;;;;;;;18.14;51.08;104154.66;5004560;28;21126;-58
2021/12/18 11:08:56;;;;;;;22.23;13.38;;;;;;;18.13;51.12;104152.03;5008930;28;20046;-57
2021/12/18 11:14:12;;;;;;;21.08;12.65;;;;;;;18.11;51.11;104148.56;5008782;28;20050;-57
2021/12/18 11:16:40;;;;;;;23.98;13.80;;;;;;;18.10;51.45;104144.16;5008084;28;20082;-56
2021/12/18 11:19:13;;;;;;;21.48;13.25;;;;;;;18.09;51.24;104142.41;5007842;28;20444;-56
2021/12/18 11:21:51;;;;;;;20.90;12.57;;;;;;;18.08;51.44;104146.03;5007536;28;20046;-57
2021/12/18 11:24:21;;;;;;;21.08;12.05;;;;;;;18.06;51.37;104151.50;5006419;28;20129;-56
2021/12/18 11:27:01;;;;;;;20.13;12.02;;;;;;;18.05;50.88;104146.16;5006016;28;20452;-57
2021/12/18 11:29:51;;;;;;;19.80;12.40;;;;;;;18.04;51.49;104150.66;5010212;28;20049;-57
2021/12/18 11:32:27;;;;;;;18.35;11.05;;;;;;;18.01;51.62;104145.47;5007541;28;20053;-57
2021/12/18 11:34:55;;;;;;;17.70;11.15;;;;;;;18.02;51.40;104149.88;5006557;28;20038;-56
2021/12/18 11:37:24;;;;;;;19.67;11.23;;;;;;;17.99;51.42;104139.28;5005560;28;20145;-57
2021/12/18 11:39:55;;;;;;;17.60;10.98;;;;;;;17.97;51.62;104134.00;5007121;28;20129;-56
2021/12/18 11:42:29;;;;;;;18.65;11.40;;;;;;;17.96;51.75;104132.25;5004992;28;20060;-56
2021/12/18 11:44:57;;;;;;;19.08;10.75;;;;;;;17.96;51.63;104136.75;5005498;28;20129;-57
2021/12/18 11:47:39;;;;;;;17.63;11.50;;;;;;;17.97;51.29;104133.16;5009547;28;20041;-57
2021/12/18 11:50:18;;;;;;;17.52;10.93;;;;;;;17.98;51.31;104124.13;5008438;28;20128;-57
2021/12/18 11:53:08;;;;;;;17.80;10.98;;;;;;;18.02;51.20;104124.88;5007722;28;20056;-57
2021/12/18 11:55:57;;;;;;;17.13;10.30;;;;;;;18.05;51.04;104125.59;5007124;28;20125;-57
2021/12/18 11:58:40;;;;;;;16.60;10.32;;;;;;;18.09;51.22;104113.75;5005342;28;20060;-57
2021/12/18 12:01:15;;;;;;;16.13;9.48;;;;;;;18.14;51.36;104113.53;5008627;28;20141;-57
2021/12/18 12:03:55;;;;;;;14.52;9.48;;;;;;;18.18;51.35;104109.75;5005273;28;20052;-58
2021/12/18 12:06:33;;;;;;;15.88;10.20;;;;;;;18.22;50.81;104109.53;5006408;28;20050;-58
2021/12/18 12:09:26;;;;;;;14.60;8.73;;;;;;;18.26;51.09;104102.19;5006415;28;20056;-59
2021/12/18 12:11:57;;;;;;;15.48;9.27;;;;;;;18.31;50.97;104110.03;5003968;28;20042;-58
2021/12/18 12:14:27;;;;;;;14.48;8.90;;;;;;;18.31;51.06;104110.88;5007229;28;20320;-57